Portada
METAR-TAF:

METAR-TAF

Aeropuertos :

Cairns, Australia

Aeropuerto de Cairns

latitud: 16-53S, longitud: 145-45E, altitud: 3 m

Observación

El informe se hizo hace 34 minutos, a las 20:00 UTC
Viento 8 kt del sur
Temperatura 23°C
Humedad 65%
Presión 1013 hPa
Visibilidad 10 km o más
Escasas nubes a una altura de 2500 ft

METAR: YBCS 272000Z 17008KT 9999 FEW025 23/16 Q1013

Hora: 06:34 (20:34 UTC)

Pronóstico

El informe se hizo hace 3 horas y 18 minutos, a las 17:16 UTC
Pronóstico válido del 27 a las 18 UTC al 28 a las 18 UTC
Viento 12 kt del sureste
Visibilidad 10 km o más
Escasas nubes a una altura de 2500 ft

TAF: YBCS 271716Z 2718/2818 14012KT 9999 FEW025

Observaciones y pronósticos meteorológicos de más de 4000 aeropuertos (mensajes METAR y TAF).

Los puntos amarillos y rojos representan las estaciones disponibles.

Ponga el ratón en el punto deseado para ver el nombre de la estación.

Haga clic para ver las observaciones y los pronósticos meteorológicos.

Para cambiar el mapa : haga clic en los botones verdes con una cruz de color negro para hacer un zoom, en el botón verde con un guión para alejar o en las flechas verdes para mapas adyacentes.


METAR-TAF: